sensor_id;sensor_type;location;lat;lon;timestamp;P1;durP1;ratioP1;P2;durP2;ratioP2
76228;SDS011;65021;53.174;18.160;2023-01-10T00:01:43;29.60;;;13.40;;
76228;SDS011;65021;53.174;18.160;2023-01-10T00:04:09;35.80;;;16.10;;
76228;SDS011;65021;53.174;18.160;2023-01-10T00:06:36;37.80;;;16.60;;
76228;SDS011;65021;53.174;18.160;2023-01-10T00:09:03;36.50;;;16.00;;
76228;SDS011;65021;53.174;18.160;2023-01-10T00:11:29;29.00;;;13.60;;
76228;SDS011;65021;53.174;18.160;2023-01-10T00:14:14;29.70;;;15.40;;
76228;SDS011;65021;53.174;18.160;2023-01-10T00:16:41;36.00;;;15.20;;
76228;SDS011;65021;53.174;18.160;2023-01-10T00:19:08;23.70;;;8.80;;
76228;SDS011;65021;53.174;18.160;2023-01-10T00:21:35;27.40;;;13.10;;
76228;SDS011;65021;53.174;18.160;2023-01-10T00:24:03;25.60;;;11.40;;
76228;SDS011;65021;53.174;18.160;2023-01-10T00:26:42;28.10;;;13.90;;
76228;SDS011;65021;53.174;18.160;2023-01-10T00:29:10;43.40;;;16.70;;
76228;SDS011;65021;53.174;18.160;2023-01-10T00:31:37;47.30;;;18.80;;
76228;SDS011;65021;53.174;18.160;2023-01-10T00:34:04;44.10;;;18.50;;
76228;SDS011;65021;53.174;18.160;2023-01-10T00:36:32;39.50;;;16.00;;
76228;SDS011;65021;53.174;18.160;2023-01-10T00:38:58;35.90;;;15.50;;
76228;SDS011;65021;53.174;18.160;2023-01-10T00:41:25;29.60;;;13.60;;
76228;SDS011;65021;53.174;18.160;2023-01-10T00:44:10;31.70;;;14.60;;
76228;SDS011;65021;53.174;18.160;2023-01-10T00:46:37;33.10;;;13.30;;
76228;SDS011;65021;53.174;18.160;2023-01-10T00:49:03;31.20;;;13.60;;
76228;SDS011;65021;53.174;18.160;2023-01-10T00:51:33;25.10;;;12.40;;
76228;SDS011;65021;53.174;18.160;2023-01-10T00:54:00;22.60;;;9.50;;
76228;SDS011;65021;53.174;18.160;2023-01-10T00:56:27;13.40;;;5.30;;
76228;SDS011;65021;53.174;18.160;2023-01-10T00:58:53;19.00;;;9.20;;
76228;SDS011;65021;53.174;18.160;2023-01-10T01:01:20;24.40;;;10.00;;
76228;SDS011;65021;53.174;18.160;2023-01-10T01:03:47;20.30;;;8.30;;
76228;SDS011;65021;53.174;18.160;2023-01-10T01:06:13;18.70;;;7.00;;
76228;SDS011;65021;53.174;18.160;2023-01-10T01:08:40;25.00;;;11.40;;
76228;SDS011;65021;53.174;18.160;2023-01-10T01:11:06;24.00;;;10.80;;
76228;SDS011;65021;53.174;18.160;2023-01-10T01:13:33;24.10;;;11.90;;
76228;SDS011;65021;53.174;18.160;2023-01-10T01:16:01;21.50;;;9.10;;
76228;SDS011;65021;53.174;18.160;2023-01-10T01:18:28;12.90;;;5.60;;
76228;SDS011;65021;53.174;18.160;2023-01-10T01:20:55;14.10;;;5.60;;
76228;SDS011;65021;53.174;18.160;2023-01-10T01:23:23;7.50;;;3.30;;
76228;SDS011;65021;53.174;18.160;2023-01-10T01:25:50;24.50;;;10.30;;
76228;SDS011;65021;53.174;18.160;2023-01-10T01:28:18;18.00;;;7.40;;
76228;SDS011;65021;53.174;18.160;2023-01-10T01:30:45;13.90;;;5.20;;
76228;SDS011;65021;53.174;18.160;2023-01-10T01:33:12;7.90;;;2.70;;
76228;SDS011;65021;53.174;18.160;2023-01-10T01:35:42;13.60;;;4.80;;
76228;SDS011;65021;53.174;18.160;2023-01-10T01:38:10;18.60;;;8.90;;
76228;SDS011;65021;53.174;18.160;2023-01-10T01:40:37;17.50;;;7.20;;
76228;SDS011;65021;53.174;18.160;2023-01-10T01:43:24;14.80;;;6.10;;
76228;SDS011;65021;53.174;18.160;2023-01-10T01:53:42;19.70;;;8.70;;
76228;SDS011;65021;53.174;18.160;2023-01-10T01:56:20;10.70;;;4.60;;
76228;SDS011;65021;53.174;18.160;2023-01-10T01:59:04;16.10;;;7.60;;
76228;SDS011;65021;53.174;18.160;2023-01-10T02:01:35;18.80;;;8.00;;
76228;SDS011;65021;53.174;18.160;2023-01-10T02:04:08;19.10;;;7.60;;
76228;SDS011;65021;53.174;18.160;2023-01-10T02:06:40;16.70;;;7.90;;
76228;SDS011;65021;53.174;18.160;2023-01-10T02:09:29;15.20;;;7.20;;
76228;SDS011;65021;53.174;18.160;2023-01-10T02:12:00;14.60;;;6.50;;
76228;SDS011;65021;53.174;18.160;2023-01-10T02:14:27;16.60;;;7.40;;
76228;SDS011;65021;53.174;18.160;2023-01-10T02:16:56;17.80;;;7.30;;
76228;SDS011;65021;53.174;18.160;2023-01-10T02:19:26;18.00;;;6.80;;
76228;SDS011;65021;53.174;18.160;2023-01-10T02:22:11;12.50;;;6.10;;
76228;SDS011;65021;53.174;18.160;2023-01-10T02:33:46;11.70;;;6.10;;
76228;SDS011;65021;53.174;18.160;2023-01-10T02:39:29;14.30;;;5.10;;
76228;SDS011;65021;53.174;18.160;2023-01-10T02:42:06;5.90;;;2.40;;
76228;SDS011;65021;53.174;18.160;2023-01-10T02:44:45;13.10;;;5.60;;
76228;SDS011;65021;53.174;18.160;2023-01-10T02:47:17;14.20;;;6.60;;
76228;SDS011;65021;53.174;18.160;2023-01-10T02:49:47;7.40;;;2.80;;
76228;SDS011;65021;53.174;18.160;2023-01-10T02:52:18;12.80;;;6.10;;
76228;SDS011;65021;53.174;18.160;2023-01-10T02:54:49;12.20;;;5.30;;
76228;SDS011;65021;53.174;18.160;2023-01-10T03:08:21;15.70;;;6.30;;
76228;SDS011;65021;53.174;18.160;2023-01-10T03:10:44;12.00;;;5.70;;
76228;SDS011;65021;53.174;18.160;2023-01-10T03:16:07;9.00;;;4.00;;
76228;SDS011;65021;53.174;18.160;2023-01-10T03:18:40;14.20;;;6.20;;
76228;SDS011;65021;53.174;18.160;2023-01-10T03:21:12;13.90;;;6.20;;
76228;SDS011;65021;53.174;18.160;2023-01-10T03:23:41;15.10;;;6.70;;
76228;SDS011;65021;53.174;18.160;2023-01-10T03:26:08;14.10;;;6.40;;
76228;SDS011;65021;53.174;18.160;2023-01-10T03:28:44;13.90;;;6.30;;
76228;SDS011;65021;53.174;18.160;2023-01-10T03:31:25;14.90;;;7.20;;
76228;SDS011;65021;53.174;18.160;2023-01-10T03:34:12;14.90;;;7.00;;
76228;SDS011;65021;53.174;18.160;2023-01-10T03:39:17;12.50;;;5.80;;
76228;SDS011;65021;53.174;18.160;2023-01-10T03:41:52;14.10;;;5.20;;
76228;SDS011;65021;53.174;18.160;2023-01-10T03:45:01;13.30;;;6.30;;
76228;SDS011;65021;53.174;18.160;2023-01-10T03:47:37;14.70;;;6.80;;
76228;SDS011;65021;53.174;18.160;2023-01-10T03:50:10;14.90;;;6.90;;
76228;SDS011;65021;53.174;18.160;2023-01-10T03:52:39;15.90;;;6.70;;
76228;SDS011;65021;53.174;18.160;2023-01-10T03:55:09;15.20;;;6.70;;
76228;SDS011;65021;53.174;18.160;2023-01-10T03:57:40;14.00;;;6.30;;
76228;SDS011;65021;53.174;18.160;2023-01-10T04:00:07;12.80;;;5.80;;
76228;SDS011;65021;53.174;18.160;2023-01-10T04:02:34;14.50;;;6.30;;
76228;SDS011;65021;53.174;18.160;2023-01-10T04:05:01;15.10;;;6.40;;
76228;SDS011;65021;53.174;18.160;2023-01-10T04:07:28;15.90;;;6.10;;
76228;SDS011;65021;53.174;18.160;2023-01-10T04:09:54;13.70;;;6.30;;
76228;SDS011;65021;53.174;18.160;2023-01-10T04:12:21;16.50;;;7.00;;
76228;SDS011;65021;53.174;18.160;2023-01-10T04:14:48;19.50;;;7.50;;
76228;SDS011;65021;53.174;18.160;2023-01-10T04:17:15;21.50;;;9.20;;
76228;SDS011;65021;53.174;18.160;2023-01-10T04:19:42;16.10;;;6.00;;
76228;SDS011;65021;53.174;18.160;2023-01-10T04:22:10;19.90;;;8.10;;
76228;SDS011;65021;53.174;18.160;2023-01-10T04:24:37;20.60;;;8.50;;
76228;SDS011;65021;53.174;18.160;2023-01-10T04:27:04;24.20;;;9.70;;
76228;SDS011;65021;53.174;18.160;2023-01-10T04:29:31;26.70;;;10.50;;
76228;SDS011;65021;53.174;18.160;2023-01-10T04:31:58;25.60;;;11.10;;
76228;SDS011;65021;53.174;18.160;2023-01-10T04:34:24;23.80;;;10.30;;
76228;SDS011;65021;53.174;18.160;2023-01-10T04:36:51;26.50;;;10.20;;
76228;SDS011;65021;53.174;18.160;2023-01-10T04:39:17;22.10;;;9.40;;
76228;SDS011;65021;53.174;18.160;2023-01-10T04:41:44;20.10;;;7.80;;
76228;SDS011;65021;53.174;18.160;2023-01-10T04:44:11;20.90;;;9.50;;
76228;SDS011;65021;53.174;18.160;2023-01-10T04:46:38;16.10;;;6.90;;
76228;SDS011;65021;53.174;18.160;2023-01-10T04:49:04;18.20;;;7.00;;
76228;SDS011;65021;53.174;18.160;2023-01-10T04:51:31;19.90;;;8.50;;
76228;SDS011;65021;53.174;18.160;2023-01-10T04:53:58;21.50;;;9.40;;
76228;SDS011;65021;53.174;18.160;2023-01-10T04:56:24;18.60;;;7.00;;
76228;SDS011;65021;53.174;18.160;2023-01-10T04:58:51;20.10;;;8.00;;
76228;SDS011;65021;53.174;18.160;2023-01-10T05:01:19;18.90;;;8.50;;
76228;SDS011;65021;53.174;18.160;2023-01-10T05:03:48;20.10;;;8.00;;
76228;SDS011;65021;53.174;18.160;2023-01-10T05:06:19;19.30;;;7.40;;
76228;SDS011;65021;53.174;18.160;2023-01-10T05:08:47;15.80;;;6.10;;
76228;SDS011;65021;53.174;18.160;2023-01-10T05:11:13;16.60;;;6.90;;
76228;SDS011;65021;53.174;18.160;2023-01-10T05:13:40;18.00;;;6.90;;
76228;SDS011;65021;53.174;18.160;2023-01-10T05:16:07;21.20;;;9.20;;
76228;SDS011;65021;53.174;18.160;2023-01-10T05:18:33;19.70;;;8.60;;
76228;SDS011;65021;53.174;18.160;2023-01-10T05:21:01;19.50;;;7.90;;
76228;SDS011;65021;53.174;18.160;2023-01-10T05:23:29;19.60;;;7.80;;
76228;SDS011;65021;53.174;18.160;2023-01-10T05:25:55;19.60;;;8.60;;
76228;SDS011;65021;53.174;18.160;2023-01-10T05:28:22;18.20;;;7.60;;
76228;SDS011;65021;53.174;18.160;2023-01-10T05:30:49;17.10;;;7.60;;
76228;SDS011;65021;53.174;18.160;2023-01-10T05:33:16;14.20;;;6.00;;
76228;SDS011;65021;53.174;18.160;2023-01-10T05:35:42;12.40;;;6.10;;
76228;SDS011;65021;53.174;18.160;2023-01-10T05:38:09;13.70;;;5.10;;
76228;SDS011;65021;53.174;18.160;2023-01-10T05:40:35;15.40;;;5.10;;
76228;SDS011;65021;53.174;18.160;2023-01-10T05:43:02;14.90;;;6.50;;
76228;SDS011;65021;53.174;18.160;2023-01-10T05:45:29;15.80;;;6.10;;
76228;SDS011;65021;53.174;18.160;2023-01-10T05:47:55;19.10;;;7.90;;
76228;SDS011;65021;53.174;18.160;2023-01-10T05:50:22;13.80;;;6.70;;
76228;SDS011;65021;53.174;18.160;2023-01-10T05:52:48;14.60;;;6.10;;
76228;SDS011;65021;53.174;18.160;2023-01-10T05:55:15;14.30;;;6.10;;
76228;SDS011;65021;53.174;18.160;2023-01-10T05:57:42;13.50;;;5.80;;
76228;SDS011;65021;53.174;18.160;2023-01-10T06:00:08;15.00;;;5.10;;
76228;SDS011;65021;53.174;18.160;2023-01-10T06:02:36;11.90;;;5.40;;
76228;SDS011;65021;53.174;18.160;2023-01-10T06:05:03;10.70;;;4.60;;
76228;SDS011;65021;53.174;18.160;2023-01-10T06:07:29;14.90;;;5.80;;
76228;SDS011;65021;53.174;18.160;2023-01-10T06:09:57;11.30;;;5.30;;
76228;SDS011;65021;53.174;18.160;2023-01-10T06:12:24;13.20;;;5.70;;
76228;SDS011;65021;53.174;18.160;2023-01-10T06:14:50;11.60;;;5.10;;
76228;SDS011;65021;53.174;18.160;2023-01-10T06:17:17;13.70;;;5.00;;
76228;SDS011;65021;53.174;18.160;2023-01-10T06:19:43;15.00;;;6.80;;
76228;SDS011;65021;53.174;18.160;2023-01-10T06:22:10;13.10;;;5.20;;
76228;SDS011;65021;53.174;18.160;2023-01-10T06:24:37;14.00;;;5.30;;
76228;SDS011;65021;53.174;18.160;2023-01-10T06:27:03;13.20;;;5.40;;
76228;SDS011;65021;53.174;18.160;2023-01-10T06:29:31;13.30;;;5.70;;
76228;SDS011;65021;53.174;18.160;2023-01-10T06:31:58;15.70;;;6.30;;
76228;SDS011;65021;53.174;18.160;2023-01-10T06:34:25;21.10;;;7.30;;
76228;SDS011;65021;53.174;18.160;2023-01-10T06:36:52;20.50;;;7.00;;
76228;SDS011;65021;53.174;18.160;2023-01-10T06:39:18;20.60;;;7.90;;
76228;SDS011;65021;53.174;18.160;2023-01-10T06:41:45;20.20;;;7.70;;
76228;SDS011;65021;53.174;18.160;2023-01-10T06:44:11;19.00;;;7.30;;
76228;SDS011;65021;53.174;18.160;2023-01-10T06:46:39;19.20;;;7.00;;
76228;SDS011;65021;53.174;18.160;2023-01-10T06:49:05;17.30;;;6.90;;
76228;SDS011;65021;53.174;18.160;2023-01-10T06:51:32;18.00;;;6.50;;
76228;SDS011;65021;53.174;18.160;2023-01-10T06:53:58;19.80;;;8.10;;
76228;SDS011;65021;53.174;18.160;2023-01-10T06:56:25;16.40;;;6.70;;
76228;SDS011;65021;53.174;18.160;2023-01-10T06:58:52;19.10;;;7.90;;
76228;SDS011;65021;53.174;18.160;2023-01-10T07:01:19;19.50;;;7.60;;
76228;SDS011;65021;53.174;18.160;2023-01-10T07:03:46;19.10;;;7.70;;
76228;SDS011;65021;53.174;18.160;2023-01-10T07:06:13;22.00;;;8.90;;
76228;SDS011;65021;53.174;18.160;2023-01-10T07:08:42;20.10;;;7.90;;
76228;SDS011;65021;53.174;18.160;2023-01-10T07:11:11;25.70;;;8.90;;
76228;SDS011;65021;53.174;18.160;2023-01-10T07:13:38;25.50;;;9.60;;
76228;SDS011;65021;53.174;18.160;2023-01-10T07:16:06;28.10;;;10.20;;
76228;SDS011;65021;53.174;18.160;2023-01-10T07:18:34;26.60;;;10.30;;
76228;SDS011;65021;53.174;18.160;2023-01-10T07:21:02;20.70;;;8.50;;
76228;SDS011;65021;53.174;18.160;2023-01-10T07:23:29;26.10;;;10.00;;
76228;SDS011;65021;53.174;18.160;2023-01-10T07:25:56;21.90;;;8.00;;
76228;SDS011;65021;53.174;18.160;2023-01-10T07:28:24;26.10;;;10.30;;
76228;SDS011;65021;53.174;18.160;2023-01-10T07:30:51;28.30;;;9.90;;
76228;SDS011;65021;53.174;18.160;2023-01-10T07:33:17;28.30;;;11.20;;
76228;SDS011;65021;53.174;18.160;2023-01-10T07:35:44;24.60;;;10.60;;
76228;SDS011;65021;53.174;18.160;2023-01-10T07:38:12;26.60;;;10.30;;
76228;SDS011;65021;53.174;18.160;2023-01-10T07:40:39;26.30;;;10.70;;
76228;SDS011;65021;53.174;18.160;2023-01-10T07:43:05;24.80;;;10.50;;
76228;SDS011;65021;53.174;18.160;2023-01-10T07:45:32;27.00;;;10.40;;
76228;SDS011;65021;53.174;18.160;2023-01-10T07:47:59;26.20;;;10.80;;
76228;SDS011;65021;53.174;18.160;2023-01-10T07:50:28;26.30;;;10.10;;
76228;SDS011;65021;53.174;18.160;2023-01-10T07:52:57;28.20;;;9.70;;
76228;SDS011;65021;53.174;18.160;2023-01-10T07:55:25;35.20;;;11.60;;
76228;SDS011;65021;53.174;18.160;2023-01-10T07:57:52;33.10;;;11.60;;
76228;SDS011;65021;53.174;18.160;2023-01-10T08:00:19;32.90;;;12.70;;
76228;SDS011;65021;53.174;18.160;2023-01-10T08:02:47;33.50;;;12.80;;
76228;SDS011;65021;53.174;18.160;2023-01-10T08:05:17;34.20;;;10.70;;
76228;SDS011;65021;53.174;18.160;2023-01-10T08:07:44;33.90;;;13.10;;
76228;SDS011;65021;53.174;18.160;2023-01-10T08:10:11;35.40;;;14.10;;
76228;SDS011;65021;53.174;18.160;2023-01-10T08:12:37;26.00;;;10.30;;
76228;SDS011;65021;53.174;18.160;2023-01-10T08:15:04;46.10;;;14.90;;
76228;SDS011;65021;53.174;18.160;2023-01-10T08:17:32;42.40;;;14.70;;
76228;SDS011;65021;53.174;18.160;2023-01-10T08:19:59;40.00;;;15.30;;
76228;SDS011;65021;53.174;18.160;2023-01-10T08:22:26;39.70;;;13.60;;
76228;SDS011;65021;53.174;18.160;2023-01-10T08:24:53;44.60;;;15.20;;
76228;SDS011;65021;53.174;18.160;2023-01-10T08:27:20;49.50;;;17.50;;
76228;SDS011;65021;53.174;18.160;2023-01-10T08:29:46;41.00;;;14.70;;
76228;SDS011;65021;53.174;18.160;2023-01-10T08:32:13;37.20;;;13.90;;
76228;SDS011;65021;53.174;18.160;2023-01-10T08:34:39;37.50;;;14.60;;
76228;SDS011;65021;53.174;18.160;2023-01-10T08:37:06;37.60;;;15.10;;
76228;SDS011;65021;53.174;18.160;2023-01-10T08:39:32;34.20;;;11.90;;
76228;SDS011;65021;53.174;18.160;2023-01-10T08:42:00;35.30;;;13.80;;
76228;SDS011;65021;53.174;18.160;2023-01-10T08:44:27;47.00;;;16.70;;
76228;SDS011;65021;53.174;18.160;2023-01-10T08:46:53;47.50;;;17.10;;
76228;SDS011;65021;53.174;18.160;2023-01-10T08:49:20;46.00;;;16.20;;
76228;SDS011;65021;53.174;18.160;2023-01-10T08:51:46;38.10;;;14.50;;
76228;SDS011;65021;53.174;18.160;2023-01-10T08:54:13;40.40;;;15.70;;
76228;SDS011;65021;53.174;18.160;2023-01-10T08:56:40;45.70;;;16.30;;
76228;SDS011;65021;53.174;18.160;2023-01-10T08:59:07;43.40;;;16.90;;
76228;SDS011;65021;53.174;18.160;2023-01-10T09:01:33;40.30;;;15.90;;
76228;SDS011;65021;53.174;18.160;2023-01-10T09:04:00;37.40;;;15.00;;
76228;SDS011;65021;53.174;18.160;2023-01-10T09:06:27;42.50;;;15.80;;
76228;SDS011;65021;53.174;18.160;2023-01-10T09:08:53;43.10;;;17.30;;
76228;SDS011;65021;53.174;18.160;2023-01-10T09:11:20;41.70;;;16.10;;
76228;SDS011;65021;53.174;18.160;2023-01-10T09:13:50;45.70;;;17.30;;
76228;SDS011;65021;53.174;18.160;2023-01-10T09:16:17;44.10;;;17.60;;
76228;SDS011;65021;53.174;18.160;2023-01-10T09:18:44;41.40;;;17.90;;
76228;SDS011;65021;53.174;18.160;2023-01-10T09:21:11;43.70;;;16.90;;
76228;SDS011;65021;53.174;18.160;2023-01-10T09:23:38;39.20;;;15.50;;
76228;SDS011;65021;53.174;18.160;2023-01-10T09:26:05;31.00;;;12.30;;
76228;SDS011;65021;53.174;18.160;2023-01-10T09:28:32;40.60;;;14.30;;
76228;SDS011;65021;53.174;18.160;2023-01-10T09:30:59;36.80;;;14.80;;
76228;SDS011;65021;53.174;18.160;2023-01-10T09:33:26;28.90;;;13.00;;
76228;SDS011;65021;53.174;18.160;2023-01-10T09:35:55;36.10;;;13.80;;
76228;SDS011;65021;53.174;18.160;2023-01-10T09:38:23;45.20;;;16.50;;
76228;SDS011;65021;53.174;18.160;2023-01-10T09:43:56;39.90;;;16.30;;
76228;SDS011;65021;53.174;18.160;2023-01-10T09:52:30;43.00;;;16.90;;
76228;SDS011;65021;53.174;18.160;2023-01-10T09:55:24;38.90;;;15.40;;
76228;SDS011;65021;53.174;18.160;2023-01-10T09:57:55;39.30;;;14.60;;
76228;SDS011;65021;53.174;18.160;2023-01-10T10:00:26;35.80;;;16.40;;
76228;SDS011;65021;53.174;18.160;2023-01-10T10:03:04;29.00;;;10.50;;
76228;SDS011;65021;53.174;18.160;2023-01-10T10:05:44;51.10;;;16.60;;
76228;SDS011;65021;53.174;18.160;2023-01-10T10:08:13;40.70;;;17.60;;
76228;SDS011;65021;53.174;18.160;2023-01-10T10:10:54;39.30;;;16.70;;
76228;SDS011;65021;53.174;18.160;2023-01-10T10:18:44;38.20;;;16.40;;
76228;SDS011;65021;53.174;18.160;2023-01-10T10:27:02;36.00;;;17.30;;
76228;SDS011;65021;53.174;18.160;2023-01-10T10:30:02;25.20;;;10.40;;
76228;SDS011;65021;53.174;18.160;2023-01-10T10:35:07;29.60;;;15.20;;
76228;SDS011;65021;53.174;18.160;2023-01-10T10:37:36;32.30;;;15.10;;
76228;SDS011;65021;53.174;18.160;2023-01-10T10:40:16;33.40;;;14.40;;
76228;SDS011;65021;53.174;18.160;2023-01-10T10:42:46;35.90;;;15.30;;
76228;SDS011;65021;53.174;18.160;2023-01-10T10:47:52;34.90;;;15.20;;
76228;SDS011;65021;53.174;18.160;2023-01-10T10:52:59;36.00;;;16.00;;
76228;SDS011;65021;53.174;18.160;2023-01-10T10:55:32;27.90;;;12.80;;
76228;SDS011;65021;53.174;18.160;2023-01-10T10:58:01;37.30;;;17.80;;
76228;SDS011;65021;53.174;18.160;2023-01-10T11:00:29;32.80;;;15.30;;
76228;SDS011;65021;53.174;18.160;2023-01-10T11:05:50;30.40;;;14.40;;
76228;SDS011;65021;53.174;18.160;2023-01-10T11:08:18;32.30;;;15.30;;
76228;SDS011;65021;53.174;18.160;2023-01-10T11:10:47;34.20;;;16.10;;
76228;SDS011;65021;53.174;18.160;2023-01-10T11:16:00;30.40;;;13.30;;
76228;SDS011;65021;53.174;18.160;2023-01-10T11:18:29;26.50;;;9.30;;
76228;SDS011;65021;53.174;18.160;2023-01-10T11:21:13;36.40;;;16.10;;
76228;SDS011;65021;53.174;18.160;2023-01-10T11:23:49;34.40;;;14.80;;
76228;SDS011;65021;53.174;18.160;2023-01-10T11:26:26;30.60;;;14.60;;
76228;SDS011;65021;53.174;18.160;2023-01-10T11:29:06;29.30;;;12.80;;
76228;SDS011;65021;53.174;18.160;2023-01-10T11:31:44;33.40;;;16.10;;
76228;SDS011;65021;53.174;18.160;2023-01-10T11:34:32;32.70;;;15.10;;
76228;SDS011;65021;53.174;18.160;2023-01-10T11:37:03;31.50;;;14.40;;
76228;SDS011;65021;53.174;18.160;2023-01-10T11:42:17;35.30;;;15.40;;
76228;SDS011;65021;53.174;18.160;2023-01-10T11:44:50;35.40;;;15.10;;
76228;SDS011;65021;53.174;18.160;2023-01-10T11:47:16;34.80;;;15.60;;
76228;SDS011;65021;53.174;18.160;2023-01-10T11:49:46;37.20;;;16.40;;
76228;SDS011;65021;53.174;18.160;2023-01-10T11:54:55;26.10;;;11.20;;
76228;SDS011;65021;53.174;18.160;2023-01-10T11:57:26;21.30;;;7.60;;
76228;SDS011;65021;53.174;18.160;2023-01-10T12:00:02;38.30;;;16.10;;
76228;SDS011;65021;53.174;18.160;2023-01-10T12:02:35;37.70;;;17.60;;
76228;SDS011;65021;53.174;18.160;2023-01-10T12:05:06;39.30;;;18.30;;
76228;SDS011;65021;53.174;18.160;2023-01-10T12:10:27;41.40;;;16.60;;
76228;SDS011;65021;53.174;18.160;2023-01-10T12:12:55;42.30;;;17.10;;
76228;SDS011;65021;53.174;18.160;2023-01-10T12:15:25;35.30;;;14.80;;
76228;SDS011;65021;53.174;18.160;2023-01-10T12:17:54;40.10;;;16.70;;
76228;SDS011;65021;53.174;18.160;2023-01-10T12:20:25;41.40;;;17.70;;
76228;SDS011;65021;53.174;18.160;2023-01-10T12:22:56;34.90;;;15.80;;
76228;SDS011;65021;53.174;18.160;2023-01-10T12:25:33;33.10;;;12.80;;
76228;SDS011;65021;53.174;18.160;2023-01-10T12:28:03;36.60;;;16.00;;
76228;SDS011;65021;53.174;18.160;2023-01-10T12:30:39;35.60;;;15.40;;
76228;SDS011;65021;53.174;18.160;2023-01-10T12:33:16;32.80;;;14.50;;
76228;SDS011;65021;53.174;18.160;2023-01-10T12:35:49;34.80;;;15.50;;
76228;SDS011;65021;53.174;18.160;2023-01-10T12:38:38;36.90;;;16.60;;
76228;SDS011;65021;53.174;18.160;2023-01-10T12:41:33;38.30;;;14.50;;
76228;SDS011;65021;53.174;18.160;2023-01-10T12:44:31;34.60;;;13.40;;
76228;SDS011;65021;53.174;18.160;2023-01-10T12:47:08;36.50;;;15.70;;
76228;SDS011;65021;53.174;18.160;2023-01-10T12:52:30;37.50;;;15.10;;
76228;SDS011;65021;53.174;18.160;2023-01-10T12:54:58;30.40;;;11.60;;
76228;SDS011;65021;53.174;18.160;2023-01-10T12:57:34;35.80;;;15.40;;
76228;SDS011;65021;53.174;18.160;2023-01-10T13:00:05;35.90;;;14.60;;
76228;SDS011;65021;53.174;18.160;2023-01-10T13:02:37;38.20;;;14.70;;
76228;SDS011;65021;53.174;18.160;2023-01-10T13:05:27;28.60;;;12.10;;
76228;SDS011;65021;53.174;18.160;2023-01-10T13:07:58;36.70;;;14.90;;
76228;SDS011;65021;53.174;18.160;2023-01-10T13:10:29;36.00;;;15.70;;
76228;SDS011;65021;53.174;18.160;2023-01-10T13:13:00;23.70;;;8.70;;
76228;SDS011;65021;53.174;18.160;2023-01-10T13:15:30;21.80;;;7.90;;
76228;SDS011;65021;53.174;18.160;2023-01-10T13:18:02;36.20;;;14.00;;
76228;SDS011;65021;53.174;18.160;2023-01-10T13:20:38;34.90;;;15.20;;
76228;SDS011;65021;53.174;18.160;2023-01-10T13:23:21;38.70;;;16.00;;
76228;SDS011;65021;53.174;18.160;2023-01-10T13:25:55;33.30;;;13.70;;
76228;SDS011;65021;53.174;18.160;2023-01-10T13:28:28;35.70;;;14.60;;
76228;SDS011;65021;53.174;18.160;2023-01-10T13:31:07;22.70;;;8.10;;
76228;SDS011;65021;53.174;18.160;2023-01-10T13:33:50;40.50;;;15.20;;
76228;SDS011;65021;53.174;18.160;2023-01-10T13:36:27;33.90;;;13.60;;
76228;SDS011;65021;53.174;18.160;2023-01-10T13:39:00;38.10;;;15.40;;
76228;SDS011;65021;53.174;18.160;2023-01-10T14:00:47;39.50;;;14.90;;
76228;SDS011;65021;53.174;18.160;2023-01-10T14:14:17;41.80;;;16.30;;
76228;SDS011;65021;53.174;18.160;2023-01-10T14:16:47;45.70;;;16.30;;
76228;SDS011;65021;53.174;18.160;2023-01-10T14:19:22;39.80;;;14.10;;
76228;SDS011;65021;53.174;18.160;2023-01-10T14:21:54;41.40;;;14.40;;
76228;SDS011;65021;53.174;18.160;2023-01-10T14:24:24;40.30;;;14.40;;
76228;SDS011;65021;53.174;18.160;2023-01-10T14:26:54;33.00;;;14.30;;
76228;SDS011;65021;53.174;18.160;2023-01-10T14:29:24;37.70;;;15.40;;
76228;SDS011;65021;53.174;18.160;2023-01-10T14:31:57;35.90;;;14.70;;
76228;SDS011;65021;53.174;18.160;2023-01-10T14:34:26;34.30;;;13.80;;
76228;SDS011;65021;53.174;18.160;2023-01-10T14:37:00;31.40;;;11.80;;
76228;SDS011;65021;53.174;18.160;2023-01-10T14:39:31;35.40;;;14.90;;
76228;SDS011;65021;53.174;18.160;2023-01-10T14:41:59;28.90;;;12.40;;
76228;SDS011;65021;53.174;18.160;2023-01-10T14:44:31;36.60;;;14.80;;
76228;SDS011;65021;53.174;18.160;2023-01-10T14:47:24;39.20;;;15.20;;
76228;SDS011;65021;53.174;18.160;2023-01-10T14:49:53;33.80;;;13.50;;
76228;SDS011;65021;53.174;18.160;2023-01-10T14:52:25;30.40;;;13.00;;
76228;SDS011;65021;53.174;18.160;2023-01-10T14:57:31;29.70;;;13.50;;
76228;SDS011;65021;53.174;18.160;2023-01-10T15:02:33;31.60;;;13.20;;
76228;SDS011;65021;53.174;18.160;2023-01-10T15:10:48;29.90;;;12.00;;
76228;SDS011;65021;53.174;18.160;2023-01-10T15:13:18;29.40;;;11.50;;
76228;SDS011;65021;53.174;18.160;2023-01-10T15:15:48;29.60;;;11.80;;
76228;SDS011;65021;53.174;18.160;2023-01-10T15:18:30;27.70;;;12.70;;
76228;SDS011;65021;53.174;18.160;2023-01-10T15:21:18;32.00;;;13.50;;
76228;SDS011;65021;53.174;18.160;2023-01-10T15:23:47;32.80;;;12.70;;
76228;SDS011;65021;53.174;18.160;2023-01-10T15:26:18;17.60;;;7.00;;
76228;SDS011;65021;53.174;18.160;2023-01-10T15:29:16;33.80;;;13.40;;
76228;SDS011;65021;53.174;18.160;2023-01-10T15:31:47;25.60;;;10.80;;
76228;SDS011;65021;53.174;18.160;2023-01-10T15:34:18;24.70;;;10.90;;
76228;SDS011;65021;53.174;18.160;2023-01-10T15:36:52;23.80;;;9.90;;
76228;SDS011;65021;53.174;18.160;2023-01-10T15:39:34;24.60;;;10.80;;
76228;SDS011;65021;53.174;18.160;2023-01-10T15:42:04;22.00;;;10.50;;
76228;SDS011;65021;53.174;18.160;2023-01-10T15:44:36;24.80;;;10.80;;
76228;SDS011;65021;53.174;18.160;2023-01-10T15:47:05;26.90;;;10.50;;
76228;SDS011;65021;53.174;18.160;2023-01-10T15:49:52;24.00;;;10.10;;
76228;SDS011;65021;53.174;18.160;2023-01-10T15:52:22;23.70;;;10.30;;
76228;SDS011;65021;53.174;18.160;2023-01-10T15:54:49;25.90;;;10.20;;
76228;SDS011;65021;53.174;18.160;2023-01-10T15:57:25;17.60;;;8.80;;
76228;SDS011;65021;53.174;18.160;2023-01-10T15:59:55;23.90;;;10.30;;
76228;SDS011;65021;53.174;18.160;2023-01-10T16:02:24;23.90;;;8.80;;
76228;SDS011;65021;53.174;18.160;2023-01-10T16:04:57;26.90;;;10.30;;
76228;SDS011;65021;53.174;18.160;2023-01-10T16:07:34;25.70;;;11.40;;
76228;SDS011;65021;53.174;18.160;2023-01-10T16:12:41;42.00;;;12.80;;
76228;SDS011;65021;53.174;18.160;2023-01-10T16:15:29;36.40;;;12.90;;
76228;SDS011;65021;53.174;18.160;2023-01-10T16:17:58;29.30;;;12.30;;
76228;SDS011;65021;53.174;18.160;2023-01-10T16:20:28;26.90;;;11.30;;
76228;SDS011;65021;53.174;18.160;2023-01-10T16:22:57;30.60;;;11.80;;
76228;SDS011;65021;53.174;18.160;2023-01-10T16:25:27;30.20;;;11.70;;
76228;SDS011;65021;53.174;18.160;2023-01-10T16:27:57;28.00;;;11.90;;
76228;SDS011;65021;53.174;18.160;2023-01-10T16:30:26;29.30;;;12.50;;
76228;SDS011;65021;53.174;18.160;2023-01-10T16:32:57;28.00;;;11.60;;
76228;SDS011;65021;53.174;18.160;2023-01-10T16:35:27;26.00;;;11.70;;
76228;SDS011;65021;53.174;18.160;2023-01-10T16:37:55;27.90;;;11.40;;